createdAt,value
2022-08-16T00:02:30.536Z,20.76
2022-08-16T00:04:59.656Z,20.73
2022-08-16T00:07:26.757Z,20.70
2022-08-16T00:09:56.189Z,20.67
2022-08-16T00:12:24.097Z,20.63
2022-08-16T00:14:50.904Z,20.61
2022-08-16T00:17:23.429Z,20.59
2022-08-16T00:19:53.708Z,20.57
2022-08-16T00:22:25.103Z,20.53
2022-08-16T00:24:54.413Z,20.46
2022-08-16T00:27:21.876Z,20.41
2022-08-16T00:29:48.500Z,20.35
2022-08-16T00:32:32.692Z,20.25
2022-08-16T00:35:00.454Z,20.21
2022-08-16T00:37:58.895Z,20.17
2022-08-16T00:40:34.881Z,20.10
2022-08-16T00:43:12.051Z,20.05
2022-08-16T00:46:22.422Z,20.01
2022-08-16T00:48:56.914Z,19.97
2022-08-16T00:51:25.077Z,19.96
2022-08-16T00:53:58.197Z,19.92
2022-08-16T00:56:58.573Z,19.80
2022-08-16T00:59:20.979Z,19.75
2022-08-16T01:01:51.369Z,19.74
2022-08-16T01:04:29.013Z,19.69
2022-08-16T01:07:02.036Z,19.63
2022-08-16T01:09:33.204Z,19.62
2022-08-16T01:12:00.950Z,19.53
2022-08-16T01:14:34.147Z,19.47
2022-08-16T01:17:03.160Z,19.45
2022-08-16T01:19:34.741Z,19.42
2022-08-16T01:22:49.560Z,19.35
2022-08-16T01:25:02.956Z,19.29
2022-08-16T01:27:35.212Z,19.24
2022-08-16T01:30:20.547Z,19.23
2022-08-16T01:33:01.370Z,19.16
2022-08-16T01:35:40.570Z,19.06
2022-08-16T01:38:34.430Z,19.01
2022-08-16T01:41:02.650Z,18.97
2022-08-16T01:43:31.539Z,18.97
2022-08-16T01:46:37.366Z,18.96
2022-08-16T01:48:48.374Z,18.96
2022-08-16T01:51:18.043Z,18.96
2022-08-16T01:53:54.608Z,18.96
2022-08-16T01:56:25.200Z,18.95
2022-08-16T01:58:55.199Z,18.94
2022-08-16T02:01:22.953Z,18.90
2022-08-16T02:03:52.440Z,18.87
2022-08-16T02:06:33.958Z,18.84
2022-08-16T02:09:05.295Z,18.78
2022-08-16T02:11:47.682Z,18.75
2022-08-16T02:14:18.414Z,18.66
2022-08-16T02:16:48.264Z,18.63
2022-08-16T02:19:16.196Z,18.66
2022-08-16T02:22:08.375Z,18.60
2022-08-16T02:24:34.327Z,18.58
2022-08-16T02:27:08.528Z,18.54
2022-08-16T02:29:35.011Z,18.55
2022-08-16T02:32:50.421Z,18.53
2022-08-16T02:34:50.298Z,18.50
2022-08-16T02:37:20.951Z,18.45
2022-08-16T02:39:53.733Z,18.38
2022-08-16T02:42:21.041Z,18.33
2022-08-16T02:44:47.465Z,18.33
2022-08-16T02:47:25.427Z,18.29
2022-08-16T02:49:59.320Z,18.19
2022-08-16T02:52:39.254Z,18.13
2022-08-16T02:55:11.722Z,18.18
2022-08-16T02:57:53.713Z,18.19
2022-08-16T03:00:32.110Z,18.20
2022-08-16T03:03:02.520Z,18.15
2022-08-16T03:05:31.575Z,18.15
2022-08-16T03:07:58.604Z,18.20
2022-08-16T03:10:33.530Z,18.19
2022-08-16T03:13:00.602Z,18.19
2022-08-16T03:15:27.856Z,18.17
2022-08-16T03:17:55.024Z,18.16
2022-08-16T03:20:32.352Z,18.08
2022-08-16T03:23:01.841Z,18.01
2022-08-16T03:25:41.104Z,18.02
2022-08-16T03:28:11.553Z,18.00
2022-08-16T03:30:38.255Z,17.96
2022-08-16T03:33:05.425Z,17.94
2022-08-16T03:35:36.159Z,17.94
2022-08-16T03:38:34.445Z,17.87
2022-08-16T03:40:53.877Z,17.83
2022-08-16T03:43:21.683Z,17.84
2022-08-16T03:45:48.897Z,17.80
2022-08-16T03:48:19.741Z,17.79
2022-08-16T03:51:00.067Z,17.80
2022-08-16T03:53:37.598Z,17.79
2022-08-16T03:56:07.318Z,17.76
2022-08-16T03:58:34.913Z,17.64
2022-08-16T04:01:04.724Z,17.63
2022-08-16T04:03:32.248Z,17.63
2022-08-16T04:05:59.493Z,17.61
2022-08-16T04:08:31.348Z,17.47
2022-08-16T04:11:01.526Z,17.40
2022-08-16T04:14:01.681Z,17.33
2022-08-16T04:16:27.385Z,17.33
2022-08-16T04:19:02.423Z,17.29
2022-08-16T04:21:35.860Z,17.18
2022-08-16T04:24:12.842Z,17.17
2022-08-16T04:26:46.246Z,17.21
2022-08-16T04:29:17.200Z,17.21
2022-08-16T04:31:56.242Z,17.19
2022-08-16T04:34:26.695Z,17.25
2022-08-16T04:36:53.842Z,17.28
2022-08-16T04:39:23.903Z,17.26
2022-08-16T04:41:56.668Z,17.24
2022-08-16T04:44:32.429Z,17.27
2022-08-16T04:47:21.102Z,17.30
2022-08-16T04:49:50.575Z,17.24
2022-08-16T04:52:32.759Z,17.12
2022-08-16T04:55:00.928Z,17.07
2022-08-16T04:57:30.380Z,17.16
2022-08-16T04:59:57.129Z,17.30
2022-08-16T05:02:42.252Z,17.40
2022-08-16T05:05:17.031Z,17.50
2022-08-16T05:07:58.560Z,17.53
2022-08-16T05:10:29.611Z,17.45
2022-08-16T05:12:57.550Z,17.42
2022-08-16T05:15:24.565Z,17.41
2022-08-16T05:17:58.845Z,17.44
2022-08-16T05:20:45.038Z,17.48
2022-08-16T05:23:15.143Z,17.58
2022-08-16T05:25:48.429Z,17.69
2022-08-16T05:28:15.292Z,17.78
2022-08-16T05:30:41.839Z,17.98
2022-08-16T05:33:16.493Z,18.24
2022-08-16T05:35:43.812Z,18.37
2022-08-16T05:38:32.464Z,18.56
2022-08-16T05:41:00.878Z,18.73
2022-08-16T05:43:32.152Z,18.85
2022-08-16T05:46:28.711Z,18.92
2022-08-16T05:49:03.741Z,20.37
2022-08-16T05:51:37.609Z,21.01
2022-08-16T05:54:07.663Z,21.07
2022-08-16T05:56:37.388Z,20.97
2022-08-16T05:59:06.427Z,20.53
2022-08-16T06:01:38.135Z,20.07
2022-08-16T06:04:13.587Z,20.07
2022-08-16T06:06:56.224Z,20.41
2022-08-16T06:09:23.921Z,20.60
2022-08-16T06:11:50.951Z,20.53
2022-08-16T06:14:18.145Z,21.42
2022-08-16T06:16:50.849Z,21.60
2022-08-16T06:19:17.744Z,22.05
2022-08-16T06:21:46.109Z,22.43
2022-08-16T06:24:54.541Z,22.60
2022-08-16T06:27:08.424Z,23.32
2022-08-16T06:29:34.856Z,24.71
2022-08-16T06:32:01.577Z,26.61
2022-08-16T06:34:53.242Z,28.59
2022-08-16T06:37:17.421Z,30.25
2022-08-16T06:39:49.176Z,31.45
2022-08-16T06:42:18.105Z,31.17
2022-08-16T06:44:45.771Z,30.94
2022-08-16T06:47:16.787Z,29.28
2022-08-16T06:49:44.024Z,26.99
2022-08-16T06:52:58.071Z,25.51
2022-08-16T06:55:13.009Z,24.37
2022-08-16T06:57:40.742Z,23.82
2022-08-16T07:00:24.779Z,23.51
2022-08-16T07:02:53.924Z,23.32
2022-08-16T07:05:26.997Z,23.08
2022-08-16T07:08:06.119Z,22.99
2022-08-16T07:10:32.570Z,22.89
2022-08-16T07:13:04.087Z,22.91
2022-08-16T07:15:38.124Z,22.86
2022-08-16T07:18:24.467Z,22.78
2022-08-16T07:20:53.883Z,22.81
2022-08-16T07:23:37.350Z,22.82
2022-08-16T07:26:09.840Z,22.90
2022-08-16T07:28:37.552Z,22.97
2022-08-16T07:31:05.034Z,23.77
2022-08-16T07:33:53.640Z,26.72
2022-08-16T07:36:22.608Z,28.85
2022-08-16T07:38:49.936Z,30.05
2022-08-16T07:41:16.897Z,30.65
2022-08-16T07:43:43.865Z,31.33
2022-08-16T07:46:38.993Z,31.73
2022-08-16T07:49:02.630Z,32.10
2022-08-16T07:51:34.729Z,32.51
2022-08-16T07:54:09.532Z,32.56
2022-08-16T07:56:37.660Z,32.27
2022-08-16T07:59:05.727Z,32.47
2022-08-16T08:01:33.457Z,32.66
2022-08-16T08:04:01.269Z,32.43
2022-08-16T08:06:32.217Z,31.96
2022-08-16T08:09:00.188Z,31.63
2022-08-16T08:11:29.569Z,31.95
2022-08-16T08:14:03.508Z,32.78
2022-08-16T08:16:32.733Z,33.38
2022-08-16T08:19:02.664Z,33.81
2022-08-16T08:21:58.385Z,33.71
2022-08-16T08:24:16.899Z,33.45
2022-08-16T08:26:43.545Z,33.39
2022-08-16T08:29:12.018Z,33.75
2022-08-16T08:31:42.461Z,34.16
2022-08-16T08:34:08.985Z,33.54
2022-08-16T08:36:39.398Z,33.28
2022-08-16T08:39:13.223Z,33.53
2022-08-16T08:41:41.460Z,33.69
2022-08-16T08:44:28.866Z,33.92
2022-08-16T08:47:00.014Z,34.15
2022-08-16T08:49:46.501Z,33.86
2022-08-16T08:52:35.194Z,33.47
2022-08-16T08:55:10.362Z,33.55
2022-08-16T08:57:44.774Z,33.97
2022-08-16T09:00:14.310Z,34.10
2022-08-16T09:02:51.920Z,33.98
2022-08-16T09:05:21.051Z,33.72
2022-08-16T09:08:00.493Z,33.57
2022-08-16T09:10:29.835Z,33.27
2022-08-16T09:12:57.167Z,32.64
2022-08-16T09:15:24.123Z,32.63
2022-08-16T09:17:54.700Z,32.55
2022-08-16T09:20:23.696Z,32.21
2022-08-16T09:22:52.576Z,31.99
2022-08-16T09:25:33.526Z,32.60
2022-08-16T09:28:02.399Z,32.77
2022-08-16T09:30:43.309Z,33.02
2022-08-16T09:33:12.441Z,33.08
2022-08-16T09:35:42.667Z,33.36
2022-08-16T09:38:12.182Z,33.40
2022-08-16T09:40:44.108Z,33.66
2022-08-16T09:43:37.788Z,33.67
2022-08-16T09:46:03.245Z,33.62
2022-08-16T09:48:52.973Z,34.02
2022-08-16T09:51:26.383Z,33.96
2022-08-16T09:54:03.730Z,33.80
2022-08-16T09:56:33.116Z,33.98
2022-08-16T09:59:03.959Z,33.98
2022-08-16T10:01:36.385Z,33.71
2022-08-16T10:04:04.179Z,33.61
2022-08-16T10:06:33.454Z,33.07
2022-08-16T10:09:06.319Z,32.97
2022-08-16T10:11:53.297Z,33.46
2022-08-16T10:14:24.481Z,34.21
2022-08-16T10:16:59.929Z,34.10
2022-08-16T10:19:29.164Z,33.75
2022-08-16T10:21:59.075Z,33.66
2022-08-16T10:24:28.302Z,33.83
2022-08-16T10:27:17.978Z,33.96
2022-08-16T10:30:00.406Z,33.59
2022-08-16T10:32:30.583Z,33.75
2022-08-16T10:35:00.234Z,33.57
2022-08-16T10:37:41.893Z,33.68
2022-08-16T10:40:28.745Z,33.35
2022-08-16T10:42:59.955Z,33.29
2022-08-16T10:45:36.395Z,32.70
2022-08-16T10:48:04.059Z,32.00
2022-08-16T10:50:32.724Z,31.40
2022-08-16T10:53:00.162Z,31.34
2022-08-16T10:55:40.627Z,31.43
2022-08-16T10:58:13.509Z,31.76
2022-08-16T11:00:43.850Z,32.15
2022-08-16T11:06:00.303Z,31.72
2022-08-16T11:08:31.297Z,31.39
2022-08-16T11:11:05.397Z,31.60
2022-08-16T11:16:26.503Z,31.29
2022-08-16T11:19:06.427Z,31.31
2022-08-16T11:24:39.431Z,31.33
2022-08-16T11:27:32.804Z,31.29
2022-08-16T11:29:56.747Z,31.38
2022-08-16T11:32:32.479Z,31.83
2022-08-16T11:35:13.750Z,32.02
2022-08-16T11:43:32.107Z,31.92
2022-08-16T11:46:43.740Z,31.91
2022-08-16T11:48:51.697Z,31.77
2022-08-16T11:51:20.574Z,31.83
2022-08-16T11:53:50.464Z,32.26
2022-08-16T11:56:37.577Z,32.39
2022-08-16T11:59:08.650Z,32.77
2022-08-16T12:01:44.615Z,33.21
2022-08-16T12:04:23.267Z,33.32
2022-08-16T12:06:53.657Z,33.42
2022-08-16T12:09:21.927Z,33.34
2022-08-16T12:11:52.691Z,33.15
2022-08-16T12:14:22.785Z,32.81
2022-08-16T12:16:55.816Z,32.45
2022-08-16T12:19:33.688Z,32.13
2022-08-16T12:22:00.802Z,32.05
2022-08-16T12:24:32.484Z,32.36
2022-08-16T12:27:00.003Z,32.88
2022-08-16T12:29:29.425Z,32.83
2022-08-16T12:32:00.636Z,32.64
2022-08-16T12:34:29.574Z,32.12
2022-08-16T12:36:56.448Z,32.09
2022-08-16T12:39:23.801Z,31.88
2022-08-16T12:41:56.355Z,31.88
2022-08-16T12:44:26.817Z,31.87
2022-08-16T12:47:16.383Z,31.71
2022-08-16T12:49:44.480Z,31.64
2022-08-16T12:52:32.755Z,31.34
2022-08-16T12:54:58.681Z,31.35
2022-08-16T12:57:25.536Z,31.26
2022-08-16T13:00:12.964Z,31.06
2022-08-16T13:02:54.015Z,30.98
2022-08-16T13:05:20.429Z,31.02
2022-08-16T13:07:51.763Z,31.02
2022-08-16T13:10:38.024Z,31.15
2022-08-16T13:13:09.249Z,31.70
2022-08-16T13:15:55.699Z,31.89
2022-08-16T13:18:33.614Z,32.09
2022-08-16T13:21:05.876Z,32.39
2022-08-16T13:23:33.521Z,32.42
2022-08-16T13:26:02.427Z,32.16
2022-08-16T13:28:28.973Z,32.23
2022-08-16T13:30:57.269Z,32.29
2022-08-16T13:33:30.778Z,32.25
2022-08-16T13:36:01.159Z,32.58
2022-08-16T13:38:32.689Z,32.65
2022-08-16T13:41:08.241Z,32.82
2022-08-16T13:43:36.561Z,33.00
2022-08-16T13:46:04.733Z,32.59
2022-08-16T13:48:37.037Z,32.34
2022-08-16T13:51:16.998Z,32.43
2022-08-16T13:53:59.791Z,32.42
2022-08-16T13:56:37.591Z,32.61
2022-08-16T13:59:20.177Z,32.83
2022-08-16T14:01:54.616Z,32.76
2022-08-16T14:04:26.408Z,32.88
2022-08-16T14:06:53.868Z,32.65
2022-08-16T14:09:21.303Z,32.21
2022-08-16T14:11:47.864Z,32.04
2022-08-16T14:14:20.059Z,31.98
2022-08-16T14:16:55.061Z,32.01
2022-08-16T14:19:22.536Z,32.11
2022-08-16T14:21:56.615Z,32.18
2022-08-16T14:24:30.019Z,32.12
2022-08-16T14:26:57.860Z,31.82
2022-08-16T14:29:24.325Z,31.25
2022-08-16T14:31:59.266Z,31.24
2022-08-16T14:34:29.800Z,31.10
2022-08-16T14:36:57.369Z,31.01
2022-08-16T14:39:26.047Z,30.78
2022-08-16T14:41:53.678Z,30.69
2022-08-16T14:44:23.280Z,30.69
2022-08-16T14:46:49.936Z,30.55
2022-08-16T14:49:19.181Z,30.44
2022-08-16T14:51:46.406Z,30.46
2022-08-16T14:54:13.207Z,30.51
2022-08-16T14:56:43.326Z,30.55
2022-08-16T14:59:21.101Z,30.70
2022-08-16T15:01:59.728Z,30.82
2022-08-16T15:04:39.864Z,30.86
2022-08-16T15:07:12.464Z,30.68
2022-08-16T15:10:00.375Z,30.51
2022-08-16T15:12:31.138Z,30.52
2022-08-16T15:15:01.890Z,30.46
2022-08-16T15:17:34.089Z,30.52
2022-08-16T15:20:08.653Z,30.50
2022-08-16T15:22:42.975Z,30.10
2022-08-16T15:25:17.778Z,30.03
2022-08-16T15:30:47.883Z,30.64
2022-08-16T15:36:04.277Z,30.80
2022-08-16T15:39:01.960Z,30.70
2022-08-16T15:41:43.631Z,30.60
2022-08-16T15:44:14.265Z,30.43
2022-08-16T15:46:56.355Z,30.41
2022-08-16T15:49:37.296Z,30.45
2022-08-16T16:00:14.689Z,29.86
2022-08-16T16:03:11.618Z,29.80
2022-08-16T16:05:43.472Z,29.88
2022-08-16T16:16:02.902Z,29.91
2022-08-16T16:18:31.767Z,29.99
2022-08-16T16:21:02.082Z,29.97
2022-08-16T16:23:35.363Z,29.97
2022-08-16T16:31:40.557Z,29.97
2022-08-16T16:34:10.006Z,30.07
2022-08-16T16:36:39.951Z,30.25
2022-08-16T16:42:06.530Z,30.26
2022-08-16T16:52:56.990Z,30.21
2022-08-16T16:55:25.445Z,30.14
2022-08-16T16:58:17.992Z,30.02
2022-08-16T17:00:58.830Z,29.96
2022-08-16T17:03:26.504Z,29.90
2022-08-16T17:06:00.251Z,29.74
2022-08-16T17:08:29.660Z,29.61
2022-08-16T17:21:42.001Z,29.21
2022-08-16T17:53:41.515Z,28.03
2022-08-16T17:56:09.097Z,27.90
2022-08-16T17:58:36.378Z,27.82
2022-08-16T18:01:03.516Z,27.74
2022-08-16T18:11:57.093Z,27.37
2022-08-16T18:14:51.180Z,27.36
2022-08-16T18:25:48.980Z,27.12
2022-08-16T18:28:16.777Z,27.05
2022-08-16T18:36:19.971Z,26.71
2022-08-16T18:56:15.682Z,26.14
2022-08-16T18:58:42.263Z,26.08
2022-08-16T19:01:08.768Z,26.03
2022-08-16T19:03:35.382Z,25.96
2022-08-16T19:06:07.584Z,25.82
2022-08-16T19:08:38.537Z,25.70
2022-08-16T19:11:10.327Z,25.60
2022-08-16T19:13:40.300Z,25.50
2022-08-16T19:16:07.577Z,25.46
2022-08-16T19:18:36.530Z,25.40
2022-08-16T19:21:03.710Z,25.31
2022-08-16T19:23:35.726Z,25.21
2022-08-16T19:26:07.325Z,25.21
2022-08-16T19:28:51.092Z,25.20
2022-08-16T19:31:31.846Z,25.12
2022-08-16T19:33:59.204Z,25.09
2022-08-16T19:36:36.929Z,25.03
2022-08-16T19:39:08.809Z,24.92
2022-08-16T19:41:53.791Z,24.83
2022-08-16T19:52:23.787Z,24.65
2022-08-16T19:54:53.017Z,24.61
2022-08-16T19:57:20.346Z,24.53
2022-08-16T19:59:47.410Z,24.46
2022-08-16T20:02:25.597Z,24.39
2022-08-16T20:05:05.323Z,24.33
2022-08-16T20:07:32.287Z,24.33
2022-08-16T20:09:58.819Z,24.27
2022-08-16T20:12:25.648Z,24.20
2022-08-16T20:14:52.527Z,24.16
2022-08-16T20:17:19.552Z,24.06
2022-08-16T20:19:46.356Z,24.00
2022-08-16T20:22:42.052Z,24.00
2022-08-16T20:25:12.048Z,23.96
2022-08-16T20:27:39.989Z,23.95
2022-08-16T20:30:08.993Z,23.95
2022-08-16T20:32:36.351Z,23.90
2022-08-16T20:35:07.526Z,23.86
2022-08-16T20:37:37.195Z,23.82
2022-08-16T20:40:34.617Z,23.81
2022-08-16T20:43:12.745Z,23.74
2022-08-16T20:45:41.138Z,23.73
2022-08-16T20:48:07.768Z,23.71
2022-08-16T20:50:34.692Z,23.68
2022-08-16T20:53:01.837Z,23.61
2022-08-16T20:55:29.421Z,23.57
2022-08-16T20:57:56.153Z,23.54
2022-08-16T21:00:22.648Z,23.48
2022-08-16T21:02:53.415Z,23.40
2022-08-16T21:05:31.026Z,23.36
2022-08-16T21:07:57.956Z,23.37
2022-08-16T21:10:24.641Z,23.33
2022-08-16T21:12:56.180Z,23.30
2022-08-16T21:15:25.665Z,23.27
2022-08-16T21:17:52.308Z,23.26
2022-08-16T21:20:20.540Z,23.23
2022-08-16T21:22:59.081Z,23.23
2022-08-16T21:25:25.649Z,23.22
2022-08-16T21:28:41.101Z,23.21
2022-08-16T21:30:39.331Z,23.17
2022-08-16T21:33:15.764Z,23.14
2022-08-16T21:35:44.481Z,23.07
2022-08-16T21:38:28.728Z,23.01
2022-08-16T21:40:57.143Z,22.98
2022-08-16T21:43:27.647Z,22.94
2022-08-16T21:45:55.681Z,22.88
2022-08-16T21:48:35.227Z,22.81
2022-08-16T21:51:07.712Z,22.74
2022-08-16T21:53:35.273Z,22.65
2022-08-16T21:56:03.601Z,22.54
2022-08-16T21:58:31.164Z,22.52
2022-08-16T22:00:58.265Z,22.52
2022-08-16T22:03:26.441Z,22.48
2022-08-16T22:06:12.281Z,22.46
2022-08-16T22:08:48.855Z,22.46
2022-08-16T22:11:19.351Z,22.45
2022-08-16T22:13:57.368Z,22.44
2022-08-16T22:16:30.392Z,22.43
2022-08-16T22:18:56.878Z,22.41
2022-08-16T22:21:23.317Z,22.39
2022-08-16T22:23:57.133Z,22.34
2022-08-16T22:26:31.117Z,22.33
2022-08-16T22:29:04.373Z,22.24
2022-08-16T22:31:31.404Z,22.19
2022-08-16T22:33:57.908Z,22.14
2022-08-16T22:36:28.382Z,22.13
2022-08-16T22:38:59.823Z,22.09
2022-08-16T22:41:31.852Z,22.10
2022-08-16T22:43:59.754Z,22.09
2022-08-16T22:46:26.507Z,22.08
2022-08-16T22:48:52.945Z,22.06
2022-08-16T22:51:22.085Z,22.01
2022-08-16T22:53:48.891Z,21.99
2022-08-16T22:56:17.712Z,21.98
2022-08-16T22:58:45.402Z,22.00
2022-08-16T23:01:12.866Z,21.99
2022-08-16T23:03:40.907Z,21.93
2022-08-16T23:06:08.650Z,21.85
2022-08-16T23:08:40.593Z,21.81
2022-08-16T23:11:21.271Z,21.77
2022-08-16T23:13:54.507Z,21.71
2022-08-16T23:16:33.471Z,21.68
2022-08-16T23:19:19.124Z,21.67
2022-08-16T23:21:48.254Z,21.69
2022-08-16T23:24:17.519Z,21.67
2022-08-16T23:26:48.512Z,21.66
2022-08-16T23:29:24.335Z,21.61
2022-08-16T23:31:55.499Z,21.59
2022-08-16T23:34:22.244Z,21.56
2022-08-16T23:36:48.658Z,21.54
2022-08-16T23:39:15.087Z,21.55
2022-08-16T23:41:41.643Z,21.53
2022-08-16T23:44:56.368Z,21.48
2022-08-16T23:46:55.452Z,21.46
2022-08-16T23:49:58.037Z,21.44
2022-08-16T23:52:09.781Z,21.44
2022-08-16T23:54:36.767Z,21.42
2022-08-16T23:57:03.920Z,21.39
2022-08-16T23:59:30.422Z,21.38
